Riyadh, Saudi Arabia

4:03 PM +03 on July 23, 2017 (GMT +0300)
Panorama | | Change Station

Elev 2119 ft 24.72 °N, 46.63 °E | Updated 10 minutes ago

Clear
Clear
113.5 °F
Feels Like 108 °F
N
1.9
Wind Variable Wind from North
Gusts 3.1 mph

Today
High -- | Low -- °F
--% Chance of Precip.
Yesterday
High -- | Low -- °F
Precip. -- in
Pressure 29.56 in
Visibility -9999.0 miles
Clouds
Heat Index 108 °F
Dew Point 45 °F
Humidity 10%
Rainfall Not available.
Snow Depth Not available.
5:16 AM 6:41 PM
New Moon, 0% visible
METAR OERK 231300Z 35007KT CAVOK 45/M04 Q1001 NOSIG
Pressure 29.56 in
Visibility -9999.0 miles
Clouds
Heat Index 108 °F
Dew Point 45 °F
Humidity 10%
Rainfall Not available.
Snow Depth Not available.
5:16 AM 6:41 PM
New Moon, 0% visible
METAR OERK 231300Z 35007KT CAVOK 45/M04 Q1001 NOSIG

Get Severe Weather Alerts

Thanks for signing up!

Be on the lookout for a verification email in your inbox.

You'll start receiving the daily forecast at 6 AM.

×

10-Day Weather Forecast

No radar image for this location.
×

Almanac

Astronomy

Jul. 23, 2017 Rise Set
Actual Time
Civil Twilight
Nautical Twilight
Astronomical Twilight
Moon
Length of Visible Light
Length of Day
Tomorrow will be .
, % of the Moon is Illuminated

Today's Extremes

Country Highs Country Lows

Community

WunderPhotos

Category 6

Welcome to Category 6. This is the collective home for Weather Underground's featured writeups by Dr. Jeff Masters (right), Bob Henson (left), Chris Burt, and other regular contributors.

Nearby

Air Quality

  Air Quality AQ Index Pollutant
Not available.

Snow Depth

Station Depth Elevation

Earthquake Activity

City Distance Mag. Time & Date
Minimum magnitude displayed is 2.5.

Coastal Water Temperatures

Place Temperature

Stations

Nearby Weather Stations

Station Location Temp. Windchill Dew Point Humidity Wind Precip. Elev Updated Type